sensor_id;sensor_type;location;lat;lon;timestamp;temperature;humidity
68433;DHT22;55412;51.350;17.056;2023-05-13T00:01:56;10.90;52.60
68433;DHT22;55412;51.350;17.056;2023-05-13T00:04:23;10.90;52.20
68433;DHT22;55412;51.350;17.056;2023-05-13T00:06:49;10.90;52.20
68433;DHT22;55412;51.350;17.056;2023-05-13T00:09:15;10.90;52.30
68433;DHT22;55412;51.350;17.056;2023-05-13T00:11:41;10.80;52.60
68433;DHT22;55412;51.350;17.056;2023-05-13T00:14:08;10.80;53.20
68433;DHT22;55412;51.350;17.056;2023-05-13T00:16:35;10.70;53.90
68433;DHT22;55412;51.350;17.056;2023-05-13T00:19:01;10.60;53.90
68433;DHT22;55412;51.350;17.056;2023-05-13T00:21:27;10.50;54.30
68433;DHT22;55412;51.350;17.056;2023-05-13T00:23:53;10.40;54.60
68433;DHT22;55412;51.350;17.056;2023-05-13T00:26:19;10.30;54.50
68433;DHT22;55412;51.350;17.056;2023-05-13T00:28:46;10.20;54.70
68433;DHT22;55412;51.350;17.056;2023-05-13T00:31:12;10.20;54.30
68433;DHT22;55412;51.350;17.056;2023-05-13T00:33:38;10.10;54.80
68433;DHT22;55412;51.350;17.056;2023-05-13T00:36:04;10.10;54.70
68433;DHT22;55412;51.350;17.056;2023-05-13T00:38:31;10.10;54.80
68433;DHT22;55412;51.350;17.056;2023-05-13T00:40:57;10.10;55.10
68433;DHT22;55412;51.350;17.056;2023-05-13T00:43:23;10.10;54.40
68433;DHT22;55412;51.350;17.056;2023-05-13T00:45:49;10.10;55.00
68433;DHT22;55412;51.350;17.056;2023-05-13T00:48:16;10.10;53.80
68433;DHT22;55412;51.350;17.056;2023-05-13T00:50:42;10.10;54.20
68433;DHT22;55412;51.350;17.056;2023-05-13T00:53:11;10.10;54.30
68433;DHT22;55412;51.350;17.056;2023-05-13T00:55:41;10.10;54.80
68433;DHT22;55412;51.350;17.056;2023-05-13T00:58:10;10.10;54.90
68433;DHT22;55412;51.350;17.056;2023-05-13T01:00:47;10.00;55.00
68433;DHT22;55412;51.350;17.056;2023-05-13T01:03:31;10.00;55.00
68433;DHT22;55412;51.350;17.056;2023-05-13T01:11:51;9.80;55.30
68433;DHT22;55412;51.350;17.056;2023-05-13T01:14:41;9.80;55.60
68433;DHT22;55412;51.350;17.056;2023-05-13T01:17:19;9.80;55.50
68433;DHT22;55412;51.350;17.056;2023-05-13T01:19:53;9.80;55.50
68433;DHT22;55412;51.350;17.056;2023-05-13T01:22:20;9.80;55.50
68433;DHT22;55412;51.350;17.056;2023-05-13T01:24:46;9.70;55.70
68433;DHT22;55412;51.350;17.056;2023-05-13T01:27:15;9.70;55.30
68433;DHT22;55412;51.350;17.056;2023-05-13T01:29:41;9.70;55.30
68433;DHT22;55412;51.350;17.056;2023-05-13T01:32:09;9.70;55.30
68433;DHT22;55412;51.350;17.056;2023-05-13T01:34:38;9.70;55.20
68433;DHT22;55412;51.350;17.056;2023-05-13T01:37:04;9.70;55.50
68433;DHT22;55412;51.350;17.056;2023-05-13T01:39:31;9.70;56.00
68433;DHT22;55412;51.350;17.056;2023-05-13T01:41:57;9.60;55.90
68433;DHT22;55412;51.350;17.056;2023-05-13T01:44:23;9.60;55.90
68433;DHT22;55412;51.350;17.056;2023-05-13T01:46:49;9.60;56.00
68433;DHT22;55412;51.350;17.056;2023-05-13T01:49:16;9.50;56.40
68433;DHT22;55412;51.350;17.056;2023-05-13T01:51:42;9.40;57.00
68433;DHT22;55412;51.350;17.056;2023-05-13T01:54:08;9.40;57.30
68433;DHT22;55412;51.350;17.056;2023-05-13T01:56:34;9.30;57.40
68433;DHT22;55412;51.350;17.056;2023-05-13T01:59:00;9.20;57.70
68433;DHT22;55412;51.350;17.056;2023-05-13T02:01:26;9.20;57.40
68433;DHT22;55412;51.350;17.056;2023-05-13T02:03:52;9.20;57.50
68433;DHT22;55412;51.350;17.056;2023-05-13T02:06:18;9.20;57.50
68433;DHT22;55412;51.350;17.056;2023-05-13T02:08:46;9.20;57.90
68433;DHT22;55412;51.350;17.056;2023-05-13T02:11:12;9.10;57.60
68433;DHT22;55412;51.350;17.056;2023-05-13T02:13:38;9.10;57.40
68433;DHT22;55412;51.350;17.056;2023-05-13T02:16:04;9.10;57.10
68433;DHT22;55412;51.350;17.056;2023-05-13T02:18:30;9.20;58.50
68433;DHT22;55412;51.350;17.056;2023-05-13T02:20:56;9.10;58.80
68433;DHT22;55412;51.350;17.056;2023-05-13T02:23:22;9.10;59.90
68433;DHT22;55412;51.350;17.056;2023-05-13T02:25:48;9.10;59.60
68433;DHT22;55412;51.350;17.056;2023-05-13T02:28:14;9.00;59.80
68433;DHT22;55412;51.350;17.056;2023-05-13T02:30:40;9.00;60.30
68433;DHT22;55412;51.350;17.056;2023-05-13T02:33:06;8.90;60.20
68433;DHT22;55412;51.350;17.056;2023-05-13T02:35:32;8.90;60.20
68433;DHT22;55412;51.350;17.056;2023-05-13T02:37:58;8.90;59.60
68433;DHT22;55412;51.350;17.056;2023-05-13T02:40:24;8.80;60.30
68433;DHT22;55412;51.350;17.056;2023-05-13T02:42:50;8.80;59.10
68433;DHT22;55412;51.350;17.056;2023-05-13T02:45:16;8.80;59.00
68433;DHT22;55412;51.350;17.056;2023-05-13T02:47:43;8.80;60.30
68433;DHT22;55412;51.350;17.056;2023-05-13T02:50:09;8.70;61.10
68433;DHT22;55412;51.350;17.056;2023-05-13T02:52:37;8.70;60.80
68433;DHT22;55412;51.350;17.056;2023-05-13T02:55:07;8.60;60.20
68433;DHT22;55412;51.350;17.056;2023-05-13T02:57:34;8.60;60.80
68433;DHT22;55412;51.350;17.056;2023-05-13T03:00:01;8.60;60.50
68433;DHT22;55412;51.350;17.056;2023-05-13T03:02:29;8.50;60.80
68433;DHT22;55412;51.350;17.056;2023-05-13T03:04:56;8.50;60.90
68433;DHT22;55412;51.350;17.056;2023-05-13T03:07:23;8.40;61.00
68433;DHT22;55412;51.350;17.056;2023-05-13T03:09:49;8.40;61.40
68433;DHT22;55412;51.350;17.056;2023-05-13T03:12:15;8.40;60.50
68433;DHT22;55412;51.350;17.056;2023-05-13T03:14:41;8.40;61.30
68433;DHT22;55412;51.350;17.056;2023-05-13T03:17:09;8.40;60.90
68433;DHT22;55412;51.350;17.056;2023-05-13T03:19:36;8.40;60.30
68433;DHT22;55412;51.350;17.056;2023-05-13T03:22:03;8.40;59.90
68433;DHT22;55412;51.350;17.056;2023-05-13T03:24:30;8.40;61.60
68433;DHT22;55412;51.350;17.056;2023-05-13T03:26:57;8.40;62.80
68433;DHT22;55412;51.350;17.056;2023-05-13T03:29:23;8.40;62.10
68433;DHT22;55412;51.350;17.056;2023-05-13T03:31:49;8.50;63.00
68433;DHT22;55412;51.350;17.056;2023-05-13T03:34:15;8.50;63.90
68433;DHT22;55412;51.350;17.056;2023-05-13T03:36:41;8.50;63.80
68433;DHT22;55412;51.350;17.056;2023-05-13T03:39:07;8.50;62.40
68433;DHT22;55412;51.350;17.056;2023-05-13T03:41:35;8.60;63.60
68433;DHT22;55412;51.350;17.056;2023-05-13T03:44:01;8.60;64.30
68433;DHT22;55412;51.350;17.056;2023-05-13T03:46:27;8.60;65.40
68433;DHT22;55412;51.350;17.056;2023-05-13T03:48:53;8.70;64.80
68433;DHT22;55412;51.350;17.056;2023-05-13T03:51:20;8.70;65.20
68433;DHT22;55412;51.350;17.056;2023-05-13T03:53:47;8.80;64.10
68433;DHT22;55412;51.350;17.056;2023-05-13T03:56:13;8.90;64.00
68433;DHT22;55412;51.350;17.056;2023-05-13T03:58:40;8.90;63.30
68433;DHT22;55412;51.350;17.056;2023-05-13T04:01:06;9.00;62.70
68433;DHT22;55412;51.350;17.056;2023-05-13T04:03:33;9.10;62.50
68433;DHT22;55412;51.350;17.056;2023-05-13T04:05:59;9.20;61.50
68433;DHT22;55412;51.350;17.056;2023-05-13T04:08:26;9.30;61.50
68433;DHT22;55412;51.350;17.056;2023-05-13T04:10:52;9.50;60.80
68433;DHT22;55412;51.350;17.056;2023-05-13T04:13:18;9.60;61.10
68433;DHT22;55412;51.350;17.056;2023-05-13T04:15:44;9.80;60.30
68433;DHT22;55412;51.350;17.056;2023-05-13T04:18:10;10.00;60.00
68433;DHT22;55412;51.350;17.056;2023-05-13T04:20:37;10.20;59.60
68433;DHT22;55412;51.350;17.056;2023-05-13T04:23:04;10.30;59.50
68433;DHT22;55412;51.350;17.056;2023-05-13T04:25:30;10.50;59.00
68433;DHT22;55412;51.350;17.056;2023-05-13T04:27:56;10.70;58.60
68433;DHT22;55412;51.350;17.056;2023-05-13T04:30:22;10.90;57.70
68433;DHT22;55412;51.350;17.056;2023-05-13T04:32:48;11.00;57.10
68433;DHT22;55412;51.350;17.056;2023-05-13T04:35:15;11.20;56.50
68433;DHT22;55412;51.350;17.056;2023-05-13T04:37:41;11.30;55.80
68433;DHT22;55412;51.350;17.056;2023-05-13T04:40:07;11.50;56.90
68433;DHT22;55412;51.350;17.056;2023-05-13T04:42:34;11.70;56.50
68433;DHT22;55412;51.350;17.056;2023-05-13T04:45:00;11.90;56.10
68433;DHT22;55412;51.350;17.056;2023-05-13T04:47:26;12.20;54.60
68433;DHT22;55412;51.350;17.056;2023-05-13T04:49:52;12.60;55.20
68433;DHT22;55412;51.350;17.056;2023-05-13T04:52:18;13.00;53.80
68433;DHT22;55412;51.350;17.056;2023-05-13T04:54:44;13.50;53.10
68433;DHT22;55412;51.350;17.056;2023-05-13T04:57:10;13.90;51.40
68433;DHT22;55412;51.350;17.056;2023-05-13T04:59:36;14.40;51.10
68433;DHT22;55412;51.350;17.056;2023-05-13T05:02:02;14.90;49.90
68433;DHT22;55412;51.350;17.056;2023-05-13T05:04:28;15.30;48.60
68433;DHT22;55412;51.350;17.056;2023-05-13T05:06:54;15.70;47.40
68433;DHT22;55412;51.350;17.056;2023-05-13T05:09:20;16.10;47.40
68433;DHT22;55412;51.350;17.056;2023-05-13T05:11:46;16.40;46.60
68433;DHT22;55412;51.350;17.056;2023-05-13T05:14:15;16.70;46.10
68433;DHT22;55412;51.350;17.056;2023-05-13T05:16:41;16.90;44.60
68433;DHT22;55412;51.350;17.056;2023-05-13T05:19:07;17.20;44.10
68433;DHT22;55412;51.350;17.056;2023-05-13T05:21:33;17.50;43.70
68433;DHT22;55412;51.350;17.056;2023-05-13T05:23:59;17.60;42.80
68433;DHT22;55412;51.350;17.056;2023-05-13T05:26:26;17.70;44.50
68433;DHT22;55412;51.350;17.056;2023-05-13T05:28:52;18.00;43.60
68433;DHT22;55412;51.350;17.056;2023-05-13T05:31:18;18.30;42.20
68433;DHT22;55412;51.350;17.056;2023-05-13T05:33:44;18.50;43.10
68433;DHT22;55412;51.350;17.056;2023-05-13T05:36:10;18.80;42.20
68433;DHT22;55412;51.350;17.056;2023-05-13T05:38:36;19.00;41.20
68433;DHT22;55412;51.350;17.056;2023-05-13T05:41:02;19.20;40.50
68433;DHT22;55412;51.350;17.056;2023-05-13T05:43:29;19.40;39.70
68433;DHT22;55412;51.350;17.056;2023-05-13T05:45:55;19.40;38.90
68433;DHT22;55412;51.350;17.056;2023-05-13T05:48:21;19.30;39.40
68433;DHT22;55412;51.350;17.056;2023-05-13T05:50:47;19.40;40.70
68433;DHT22;55412;51.350;17.056;2023-05-13T05:53:13;19.40;40.00
68433;DHT22;55412;51.350;17.056;2023-05-13T05:55:40;19.40;39.80
68433;DHT22;55412;51.350;17.056;2023-05-13T05:58:08;19.30;39.50
68433;DHT22;55412;51.350;17.056;2023-05-13T06:00:35;19.40;40.40
68433;DHT22;55412;51.350;17.056;2023-05-13T06:03:01;19.70;39.80
68433;DHT22;55412;51.350;17.056;2023-05-13T06:05:27;19.80;41.10
68433;DHT22;55412;51.350;17.056;2023-05-13T06:07:53;20.10;39.40
68433;DHT22;55412;51.350;17.056;2023-05-13T06:10:19;20.30;38.90
68433;DHT22;55412;51.350;17.056;2023-05-13T06:12:45;20.50;38.40
68433;DHT22;55412;51.350;17.056;2023-05-13T06:15:11;20.60;37.30
68433;DHT22;55412;51.350;17.056;2023-05-13T06:17:37;20.80;39.00
68433;DHT22;55412;51.350;17.056;2023-05-13T06:20:04;21.20;37.80
68433;DHT22;55412;51.350;17.056;2023-05-13T06:22:31;21.60;37.80
68433;DHT22;55412;51.350;17.056;2023-05-13T06:24:57;22.00;37.30
68433;DHT22;55412;51.350;17.056;2023-05-13T06:27:23;22.50;34.70
68433;DHT22;55412;51.350;17.056;2023-05-13T06:29:50;22.70;34.60
68433;DHT22;55412;51.350;17.056;2023-05-13T06:32:16;23.00;33.80
68433;DHT22;55412;51.350;17.056;2023-05-13T06:34:42;23.30;33.60
68433;DHT22;55412;51.350;17.056;2023-05-13T06:37:13;23.70;32.90
68433;DHT22;55412;51.350;17.056;2023-05-13T06:39:40;23.80;32.20
68433;DHT22;55412;51.350;17.056;2023-05-13T06:42:06;23.70;32.30
68433;DHT22;55412;51.350;17.056;2023-05-13T06:44:32;23.80;32.20
68433;DHT22;55412;51.350;17.056;2023-05-13T06:46:58;24.10;31.80
68433;DHT22;55412;51.350;17.056;2023-05-13T06:49:24;24.10;32.50
68433;DHT22;55412;51.350;17.056;2023-05-13T06:51:50;24.30;31.80
68433;DHT22;55412;51.350;17.056;2023-05-13T06:54:16;24.30;31.50
68433;DHT22;55412;51.350;17.056;2023-05-13T06:56:43;24.50;30.80
68433;DHT22;55412;51.350;17.056;2023-05-13T06:59:09;24.70;30.90
68433;DHT22;55412;51.350;17.056;2023-05-13T07:01:35;24.90;31.00
68433;DHT22;55412;51.350;17.056;2023-05-13T07:04:01;24.90;30.60
68433;DHT22;55412;51.350;17.056;2023-05-13T07:06:27;24.40;31.70
68433;DHT22;55412;51.350;17.056;2023-05-13T07:08:53;24.30;31.70
68433;DHT22;55412;51.350;17.056;2023-05-13T07:11:19;24.00;31.70
68433;DHT22;55412;51.350;17.056;2023-05-13T07:13:45;23.80;33.00
68433;DHT22;55412;51.350;17.056;2023-05-13T07:16:12;24.30;32.00
68433;DHT22;55412;51.350;17.056;2023-05-13T07:18:39;24.80;31.80
68433;DHT22;55412;51.350;17.056;2023-05-13T07:21:05;25.00;31.40
68433;DHT22;55412;51.350;17.056;2023-05-13T07:23:31;25.20;30.70
68433;DHT22;55412;51.350;17.056;2023-05-13T07:25:57;25.20;31.20
68433;DHT22;55412;51.350;17.056;2023-05-13T07:28:23;25.20;31.20
68433;DHT22;55412;51.350;17.056;2023-05-13T07:30:49;25.10;30.90
68433;DHT22;55412;51.350;17.056;2023-05-13T07:33:18;24.90;31.20
68433;DHT22;55412;51.350;17.056;2023-05-13T07:35:44;24.40;31.80
68433;DHT22;55412;51.350;17.056;2023-05-13T07:38:10;23.70;32.50
68433;DHT22;55412;51.350;17.056;2023-05-13T07:40:36;23.20;32.90
68433;DHT22;55412;51.350;17.056;2023-05-13T07:43:03;22.60;34.10
68433;DHT22;55412;51.350;17.056;2023-05-13T07:45:29;21.90;34.60
68433;DHT22;55412;51.350;17.056;2023-05-13T07:47:55;21.30;35.80
68433;DHT22;55412;51.350;17.056;2023-05-13T07:50:21;20.70;36.60
68433;DHT22;55412;51.350;17.056;2023-05-13T07:52:47;20.20;37.70
68433;DHT22;55412;51.350;17.056;2023-05-13T07:55:17;19.70;38.70
68433;DHT22;55412;51.350;17.056;2023-05-13T07:57:43;19.40;39.30
68433;DHT22;55412;51.350;17.056;2023-05-13T08:00:09;19.20;40.30
68433;DHT22;55412;51.350;17.056;2023-05-13T08:02:40;19.20;40.30
68433;DHT22;55412;51.350;17.056;2023-05-13T08:05:09;19.20;39.90
68433;DHT22;55412;51.350;17.056;2023-05-13T08:07:35;19.00;40.10
68433;DHT22;55412;51.350;17.056;2023-05-13T08:10:01;18.90;40.10
68433;DHT22;55412;51.350;17.056;2023-05-13T08:12:28;18.80;41.00
68433;DHT22;55412;51.350;17.056;2023-05-13T08:14:54;18.80;41.30
68433;DHT22;55412;51.350;17.056;2023-05-13T08:17:20;18.70;41.40
68433;DHT22;55412;51.350;17.056;2023-05-13T08:19:47;18.70;41.30
68433;DHT22;55412;51.350;17.056;2023-05-13T08:22:13;18.70;41.70
68433;DHT22;55412;51.350;17.056;2023-05-13T08:24:44;18.70;42.30
68433;DHT22;55412;51.350;17.056;2023-05-13T08:27:10;18.60;41.90
68433;DHT22;55412;51.350;17.056;2023-05-13T08:29:37;18.50;41.90
68433;DHT22;55412;51.350;17.056;2023-05-13T08:32:04;18.40;42.60
68433;DHT22;55412;51.350;17.056;2023-05-13T08:34:30;18.30;44.10
68433;DHT22;55412;51.350;17.056;2023-05-13T08:36:56;18.20;43.60
68433;DHT22;55412;51.350;17.056;2023-05-13T08:39:22;18.30;43.60
68433;DHT22;55412;51.350;17.056;2023-05-13T08:41:49;18.30;45.60
68433;DHT22;55412;51.350;17.056;2023-05-13T08:44:17;18.20;44.10
68433;DHT22;55412;51.350;17.056;2023-05-13T08:46:52;18.30;44.10
68433;DHT22;55412;51.350;17.056;2023-05-13T08:49:30;18.30;45.50
68433;DHT22;55412;51.350;17.056;2023-05-13T08:51:56;18.10;44.40
68433;DHT22;55412;51.350;17.056;2023-05-13T08:54:23;18.00;44.90
68433;DHT22;55412;51.350;17.056;2023-05-13T08:56:51;18.30;43.90
68433;DHT22;55412;51.350;17.056;2023-05-13T08:59:17;18.30;44.50
68433;DHT22;55412;51.350;17.056;2023-05-13T09:01:44;18.40;44.00
68433;DHT22;55412;51.350;17.056;2023-05-13T09:04:11;18.70;44.70
68433;DHT22;55412;51.350;17.056;2023-05-13T09:06:37;18.50;44.10
68433;DHT22;55412;51.350;17.056;2023-05-13T09:09:03;18.40;44.40
68433;DHT22;55412;51.350;17.056;2023-05-13T09:11:30;18.40;44.10
68433;DHT22;55412;51.350;17.056;2023-05-13T09:14:02;18.50;44.80
68433;DHT22;55412;51.350;17.056;2023-05-13T09:16:30;18.70;43.80
68433;DHT22;55412;51.350;17.056;2023-05-13T09:18:59;18.90;44.40
68433;DHT22;55412;51.350;17.056;2023-05-13T09:21:32;19.10;41.70
68433;DHT22;55412;51.350;17.056;2023-05-13T09:24:12;19.20;44.10
68433;DHT22;55412;51.350;17.056;2023-05-13T09:26:44;19.50;40.10
68433;DHT22;55412;51.350;17.056;2023-05-13T09:29:15;19.70;40.30
68433;DHT22;55412;51.350;17.056;2023-05-13T09:31:43;19.60;40.70
68433;DHT22;55412;51.350;17.056;2023-05-13T09:34:10;19.60;40.80
68433;DHT22;55412;51.350;17.056;2023-05-13T09:36:37;19.70;40.60
68433;DHT22;55412;51.350;17.056;2023-05-13T09:39:04;19.80;40.00
68433;DHT22;55412;51.350;17.056;2023-05-13T09:41:32;19.90;40.20
68433;DHT22;55412;51.350;17.056;2023-05-13T09:44:01;20.20;39.90
68433;DHT22;55412;51.350;17.056;2023-05-13T09:46:30;20.30;38.20
68433;DHT22;55412;51.350;17.056;2023-05-13T09:48:57;20.50;38.10
68433;DHT22;55412;51.350;17.056;2023-05-13T09:51:27;20.40;36.90
68433;DHT22;55412;51.350;17.056;2023-05-13T09:54:04;20.60;37.20
68433;DHT22;55412;51.350;17.056;2023-05-13T09:56:33;20.50;37.80
68433;DHT22;55412;51.350;17.056;2023-05-13T09:59:03;20.80;38.50
68433;DHT22;55412;51.350;17.056;2023-05-13T10:01:30;21.00;38.10
68433;DHT22;55412;51.350;17.056;2023-05-13T10:03:57;21.30;37.10
68433;DHT22;55412;51.350;17.056;2023-05-13T10:06:29;21.20;37.20
68433;DHT22;55412;51.350;17.056;2023-05-13T10:08:57;20.80;37.30
68433;DHT22;55412;51.350;17.056;2023-05-13T10:11:24;20.50;35.20
68433;DHT22;55412;51.350;17.056;2023-05-13T10:13:58;20.30;35.90
68433;DHT22;55412;51.350;17.056;2023-05-13T10:16:27;20.60;35.00
68433;DHT22;55412;51.350;17.056;2023-05-13T10:18:55;20.80;34.20
68433;DHT22;55412;51.350;17.056;2023-05-13T10:21:21;20.70;34.80
68433;DHT22;55412;51.350;17.056;2023-05-13T10:23:49;20.50;36.10
68433;DHT22;55412;51.350;17.056;2023-05-13T10:26:22;20.50;34.70
68433;DHT22;55412;51.350;17.056;2023-05-13T10:28:49;20.30;34.30
68433;DHT22;55412;51.350;17.056;2023-05-13T10:31:16;20.70;34.10
68433;DHT22;55412;51.350;17.056;2023-05-13T10:33:43;20.90;33.60
68433;DHT22;55412;51.350;17.056;2023-05-13T10:36:41;21.10;33.30
68433;DHT22;55412;51.350;17.056;2023-05-13T10:39:45;21.40;33.40
68433;DHT22;55412;51.350;17.056;2023-05-13T10:42:39;21.30;33.60
68433;DHT22;55412;51.350;17.056;2023-05-13T10:45:09;21.40;34.70
68433;DHT22;55412;51.350;17.056;2023-05-13T10:47:36;21.60;33.30
68433;DHT22;55412;51.350;17.056;2023-05-13T10:50:20;21.30;34.60
68433;DHT22;55412;51.350;17.056;2023-05-13T10:52:48;21.00;34.90
68433;DHT22;55412;51.350;17.056;2023-05-13T10:55:16;21.10;34.40
68433;DHT22;55412;51.350;17.056;2023-05-13T10:58:06;20.80;31.70
68433;DHT22;55412;51.350;17.056;2023-05-13T11:00:41;20.10;34.10
68433;DHT22;55412;51.350;17.056;2023-05-13T11:05:47;19.80;35.80
68433;DHT22;55412;51.350;17.056;2023-05-13T11:08:41;20.10;36.10
68433;DHT22;55412;51.350;17.056;2023-05-13T11:13:52;20.40;34.90
68433;DHT22;55412;51.350;17.056;2023-05-13T11:16:28;20.10;34.10
68433;DHT22;55412;51.350;17.056;2023-05-13T11:18:54;20.00;35.70
68433;DHT22;55412;51.350;17.056;2023-05-13T11:21:31;20.10;34.60
68433;DHT22;55412;51.350;17.056;2023-05-13T11:24:03;20.20;33.60
68433;DHT22;55412;51.350;17.056;2023-05-13T11:29:10;20.40;33.00
68433;DHT22;55412;51.350;17.056;2023-05-13T11:31:50;20.20;33.30
68433;DHT22;55412;51.350;17.056;2023-05-13T11:34:22;20.10;33.70
68433;DHT22;55412;51.350;17.056;2023-05-13T11:36:56;20.20;34.40
68433;DHT22;55412;51.350;17.056;2023-05-13T11:39:23;20.50;34.00
68433;DHT22;55412;51.350;17.056;2023-05-13T11:41:53;20.70;32.90
68433;DHT22;55412;51.350;17.056;2023-05-13T11:44:25;20.60;33.10
68433;DHT22;55412;51.350;17.056;2023-05-13T11:46:53;20.50;33.80
68433;DHT22;55412;51.350;17.056;2023-05-13T11:49:34;20.30;33.60
68433;DHT22;55412;51.350;17.056;2023-05-13T11:52:11;20.30;34.60
68433;DHT22;55412;51.350;17.056;2023-05-13T11:54:52;20.30;33.60
68433;DHT22;55412;51.350;17.056;2023-05-13T11:57:27;20.20;33.50
68433;DHT22;55412;51.350;17.056;2023-05-13T11:59:58;20.10;33.80
68433;DHT22;55412;51.350;17.056;2023-05-13T12:02:42;20.10;33.80
68433;DHT22;55412;51.350;17.056;2023-05-13T12:05:15;19.90;33.70
68433;DHT22;55412;51.350;17.056;2023-05-13T12:07:55;19.80;34.30
68433;DHT22;55412;51.350;17.056;2023-05-13T12:10:22;19.70;34.70
68433;DHT22;55412;51.350;17.056;2023-05-13T12:12:49;19.60;34.70
68433;DHT22;55412;51.350;17.056;2023-05-13T12:15:17;19.60;34.50
68433;DHT22;55412;51.350;17.056;2023-05-13T12:17:45;19.70;33.40
68433;DHT22;55412;51.350;17.056;2023-05-13T12:28:19;19.60;34.60
68433;DHT22;55412;51.350;17.056;2023-05-13T12:30:57;19.60;33.80
68433;DHT22;55412;51.350;17.056;2023-05-13T12:33:40;19.60;33.60
68433;DHT22;55412;51.350;17.056;2023-05-13T12:36:21;19.70;34.40
68433;DHT22;55412;51.350;17.056;2023-05-13T12:41:40;19.90;33.60
68433;DHT22;55412;51.350;17.056;2023-05-13T12:44:12;19.80;34.10
68433;DHT22;55412;51.350;17.056;2023-05-13T12:46:48;19.80;34.10
68433;DHT22;55412;51.350;17.056;2023-05-13T12:49:15;19.70;34.60
68433;DHT22;55412;51.350;17.056;2023-05-13T12:51:42;20.00;33.80
68433;DHT22;55412;51.350;17.056;2023-05-13T12:54:09;20.20;33.30
68433;DHT22;55412;51.350;17.056;2023-05-13T12:56:36;20.40;33.50
68433;DHT22;55412;51.350;17.056;2023-05-13T12:59:04;20.60;33.40
68433;DHT22;55412;51.350;17.056;2023-05-13T13:01:31;20.70;32.70
68433;DHT22;55412;51.350;17.056;2023-05-13T13:03:57;20.70;33.20
68433;DHT22;55412;51.350;17.056;2023-05-13T13:06:23;20.80;32.60
68433;DHT22;55412;51.350;17.056;2023-05-13T13:08:49;20.80;33.00
68433;DHT22;55412;51.350;17.056;2023-05-13T13:11:15;20.90;33.80
68433;DHT22;55412;51.350;17.056;2023-05-13T13:13:44;20.80;31.60
68433;DHT22;55412;51.350;17.056;2023-05-13T13:16:10;20.60;31.70
68433;DHT22;55412;51.350;17.056;2023-05-13T13:18:38;20.40;32.20
68433;DHT22;55412;51.350;17.056;2023-05-13T13:21:04;20.30;33.00
68433;DHT22;55412;51.350;17.056;2023-05-13T13:23:35;20.10;33.20
68433;DHT22;55412;51.350;17.056;2023-05-13T13:26:01;20.00;33.80
68433;DHT22;55412;51.350;17.056;2023-05-13T13:28:27;20.00;34.30
68433;DHT22;55412;51.350;17.056;2023-05-13T13:30:54;19.80;34.70
68433;DHT22;55412;51.350;17.056;2023-05-13T13:33:21;19.80;35.10
68433;DHT22;55412;51.350;17.056;2023-05-13T13:35:47;19.70;34.30
68433;DHT22;55412;51.350;17.056;2023-05-13T13:38:14;19.60;34.40
68433;DHT22;55412;51.350;17.056;2023-05-13T13:40:40;19.50;35.70
68433;DHT22;55412;51.350;17.056;2023-05-13T13:43:06;19.50;34.40
68433;DHT22;55412;51.350;17.056;2023-05-13T13:45:33;19.40;34.70
68433;DHT22;55412;51.350;17.056;2023-05-13T13:48:00;19.30;34.10
68433;DHT22;55412;51.350;17.056;2023-05-13T13:50:26;19.40;34.60
68433;DHT22;55412;51.350;17.056;2023-05-13T13:52:53;19.30;35.30
68433;DHT22;55412;51.350;17.056;2023-05-13T13:55:21;19.40;35.10
68433;DHT22;55412;51.350;17.056;2023-05-13T13:57:48;19.40;34.70
68433;DHT22;55412;51.350;17.056;2023-05-13T14:00:15;19.40;34.60
68433;DHT22;55412;51.350;17.056;2023-05-13T14:02:42;19.40;35.10
68433;DHT22;55412;51.350;17.056;2023-05-13T14:05:10;19.40;35.10
68433;DHT22;55412;51.350;17.056;2023-05-13T14:07:37;19.30;35.10
68433;DHT22;55412;51.350;17.056;2023-05-13T14:10:04;19.30;35.30
68433;DHT22;55412;51.350;17.056;2023-05-13T14:12:30;19.30;35.70
68433;DHT22;55412;51.350;17.056;2023-05-13T14:14:58;19.30;35.40
68433;DHT22;55412;51.350;17.056;2023-05-13T14:17:25;19.30;34.70
68433;DHT22;55412;51.350;17.056;2023-05-13T14:19:51;19.30;35.00
68433;DHT22;55412;51.350;17.056;2023-05-13T14:22:20;19.30;35.20
68433;DHT22;55412;51.350;17.056;2023-05-13T14:24:50;19.30;35.50
68433;DHT22;55412;51.350;17.056;2023-05-13T14:27:17;19.30;35.20
68433;DHT22;55412;51.350;17.056;2023-05-13T14:29:45;19.40;35.00
68433;DHT22;55412;51.350;17.056;2023-05-13T14:32:12;19.30;36.10
68433;DHT22;55412;51.350;17.056;2023-05-13T14:34:38;19.30;35.20
68433;DHT22;55412;51.350;17.056;2023-05-13T14:37:04;19.20;36.70
68433;DHT22;55412;51.350;17.056;2023-05-13T14:39:30;19.20;35.30
68433;DHT22;55412;51.350;17.056;2023-05-13T14:41:56;19.10;35.20
68433;DHT22;55412;51.350;17.056;2023-05-13T14:44:22;19.10;36.10
68433;DHT22;55412;51.350;17.056;2023-05-13T14:46:49;19.10;35.80
68433;DHT22;55412;51.350;17.056;2023-05-13T14:49:15;19.10;35.40
68433;DHT22;55412;51.350;17.056;2023-05-13T14:51:41;19.00;35.30
68433;DHT22;55412;51.350;17.056;2023-05-13T14:54:07;19.00;35.50
68433;DHT22;55412;51.350;17.056;2023-05-13T14:56:34;19.00;36.00
68433;DHT22;55412;51.350;17.056;2023-05-13T14:59:01;19.00;36.20
68433;DHT22;55412;51.350;17.056;2023-05-13T15:01:27;19.00;35.50
68433;DHT22;55412;51.350;17.056;2023-05-13T15:03:53;18.90;35.10
68433;DHT22;55412;51.350;17.056;2023-05-13T15:06:19;18.90;35.60
68433;DHT22;55412;51.350;17.056;2023-05-13T15:08:45;18.90;35.40
68433;DHT22;55412;51.350;17.056;2023-05-13T15:11:11;18.90;36.00
68433;DHT22;55412;51.350;17.056;2023-05-13T15:13:37;18.80;35.60
68433;DHT22;55412;51.350;17.056;2023-05-13T15:16:04;18.80;35.70
68433;DHT22;55412;51.350;17.056;2023-05-13T15:18:31;18.80;36.10
68433;DHT22;55412;51.350;17.056;2023-05-13T15:20:57;18.80;36.00
68433;DHT22;55412;51.350;17.056;2023-05-13T15:23:23;18.70;36.20
68433;DHT22;55412;51.350;17.056;2023-05-13T15:25:50;18.70;37.30
68433;DHT22;55412;51.350;17.056;2023-05-13T15:28:16;18.60;37.40
68433;DHT22;55412;51.350;17.056;2023-05-13T15:30:42;18.70;37.00
68433;DHT22;55412;51.350;17.056;2023-05-13T15:33:08;18.70;37.60
68433;DHT22;55412;51.350;17.056;2023-05-13T15:35:34;18.60;37.90
68433;DHT22;55412;51.350;17.056;2023-05-13T15:38:00;18.60;37.70
68433;DHT22;55412;51.350;17.056;2023-05-13T15:40:27;18.60;38.10
68433;DHT22;55412;51.350;17.056;2023-05-13T15:42:53;18.60;38.10
68433;DHT22;55412;51.350;17.056;2023-05-13T15:45:20;18.60;38.30
68433;DHT22;55412;51.350;17.056;2023-05-13T15:47:46;18.60;37.90
68433;DHT22;55412;51.350;17.056;2023-05-13T15:50:12;18.60;38.10